»·PEaware :: N744VL KSDL-KLAS

N744VL :: KSDL-KLAS

FLIGHT INFORMATION

Flight Status: Arrived
Operator: Privately registered:
United States
More flights under this callsign
Pilot: Todd T. (13067)
Aircraft: BEECH AIRCRAFT BARON
(BE58)
More flights by this aircraft type
Origin: KSDL Scottsdale
United States
Destination: KLAS McCarran Intl
United States
More flights between these airports :: More routes between these airports
Route: MRRIC1 PXR V105 BLD
File this flight plan on PilotEdge
Remarks:
Altitude:
(Current/Filed)
12,000ft
Speed:
(Current/Filed)
0kts
Departed: 01-Aug-18 05:41 PM
Arrived: 01-Aug-18 07:14 PM
Distance/Time
Traveled:
218nm/1:33
Distance/Time
To Go:
Arrived

Flight Plot

Page will automatically refresh every two minutes.

Flight plan parsing failed; only flown route is shown


Map Options




Map Legend


Flown Route
Filed Route
Departure Airport
Arrival Airport
Navaid (VOR, NDB)
Fix

Horizontal Profiles

Position Reports

Time Latitude Longitude Heading Altitude Ground
Speed
01-Aug-18 17:27 33.615819 -111.916909 225 1467ft 0kts
01-Aug-18 17:28 33.615819 -111.916909 225 1467ft 0kts
01-Aug-18 17:29 33.615819 -111.916909 225 1467ft 0kts
01-Aug-18 17:30 33.615819 -111.916909 225 1467ft 0kts
01-Aug-18 17:31 33.615819 -111.916909 225 1467ft 0kts
01-Aug-18 17:32 33.615819 -111.916909 225 1467ft 0kts
01-Aug-18 17:33 33.615819 -111.916909 225 1467ft 0kts
01-Aug-18 17:34 33.617214 -111.916007 44 1467ft 14kts
01-Aug-18 17:35 33.621136 -111.911415 43 1467ft 23kts
01-Aug-18 17:36 33.626087 -111.905694 44 1467ft 24kts
01-Aug-18 17:37 33.630676 -111.900770 312 1467ft 3kts
01-Aug-18 17:38 33.630685 -111.900781 310 1467ft 0kts
01-Aug-18 17:39 33.630685 -111.900782 310 1467ft 0kts
01-Aug-18 17:40 33.630685 -111.900781 310 1467ft 0kts
01-Aug-18 17:41 33.630685 -111.900781 310 1467ft 0kts
01-Aug-18 17:42 33.628635 -111.903861 230 1468ft 79kts
01-Aug-18 17:43 33.600743 -111.932343 200 2555ft 138kts
01-Aug-18 17:44 33.560511 -111.939701 188 3768ft 148kts
01-Aug-18 17:45 33.519372 -111.941010 192 4641ft 146kts
01-Aug-18 17:46 33.481764 -111.953739 198 5464ft 135kts
01-Aug-18 17:47 33.446515 -111.966733 193 6286ft 138kts
01-Aug-18 17:48 33.444893 -111.995293 340 6817ft 144kts
01-Aug-18 17:49 33.482619 -112.013822 332 7124ft 152kts
01-Aug-18 17:50 33.519365 -112.035474 331 7778ft 143kts
01-Aug-18 17:51 33.555078 -112.056667 331 8470ft 143kts
01-Aug-18 17:52 33.590717 -112.077827 331 9132ft 143kts
01-Aug-18 17:53 33.626376 -112.099016 331 9755ft 142kts
01-Aug-18 17:54 33.661626 -112.119981 331 10342ft 143kts
01-Aug-18 17:55 33.697384 -112.141266 331 10932ft 144kts
01-Aug-18 17:56 33.733502 -112.162790 331 11526ft 145kts
01-Aug-18 17:57 33.770260 -112.184721 331 11974ft 154kts
01-Aug-18 17:58 33.811289 -112.209198 331 11974ft 172kts
01-Aug-18 17:59 33.855122 -112.235378 331 11972ft 178kts
01-Aug-18 18:00 33.899971 -112.262210 331 11972ft 180kts
01-Aug-18 18:01 33.940432 -112.286448 331 11971ft 181kts
01-Aug-18 18:02 33.985435 -112.313439 331 11971ft 181kts
01-Aug-18 18:03 34.030527 -112.340520 331 11971ft 181kts
01-Aug-18 18:04 34.075687 -112.367670 331 11971ft 181kts
01-Aug-18 18:05 34.120586 -112.394694 331 11971ft 181kts
01-Aug-18 18:06 34.165732 -112.421925 331 11971ft 181kts
01-Aug-18 18:07 34.210930 -112.449136 331 11985ft 182kts
01-Aug-18 18:08 34.256967 -112.476999 332 11871ft 186kts
01-Aug-18 18:09 34.304021 -112.497003 0 12017ft 181kts
01-Aug-18 18:10 34.354922 -112.494966 0 12026ft 185kts
01-Aug-18 18:11 34.406938 -112.493112 4 12032ft 189kts
01-Aug-18 18:12 34.459327 -112.490723 5 12034ft 187kts
01-Aug-18 18:13 34.510006 -112.488275 2 12029ft 179kts
01-Aug-18 18:14 34.559023 -112.486347 2 12029ft 175kts
01-Aug-18 18:15 34.607676 -112.484349 2 12030ft 174kts
01-Aug-18 18:16 34.647870 -112.482660 2 12030ft 174kts
01-Aug-18 18:17 34.702456 -112.485865 319 12035ft 174kts
01-Aug-18 18:18 34.731732 -112.533543 307 12030ft 177kts
01-Aug-18 18:19 34.755224 -112.574562 307 12030ft 177kts
01-Aug-18 18:20 34.787669 -112.632356 306 12030ft 177kts
01-Aug-18 18:21 34.810652 -112.673489 306 12030ft 177kts
01-Aug-18 18:22 34.838389 -112.723204 306 12029ft 177kts
01-Aug-18 18:23 34.866055 -112.772871 306 12029ft 177kts
01-Aug-18 18:24 34.893809 -112.822766 306 12029ft 177kts
01-Aug-18 18:25 34.921467 -112.872560 306 12029ft 177kts
01-Aug-18 18:26 34.949100 -112.922378 306 12037ft 177kts
01-Aug-18 18:27 34.975364 -112.970332 308 12250ft 173kts
01-Aug-18 18:28 35.003303 -113.020343 306 12260ft 183kts
01-Aug-18 18:29 35.032846 -113.073193 302 12110ft 192kts
01-Aug-18 18:30 35.062010 -113.126483 302 12095ft 185kts
01-Aug-18 18:31 35.090542 -113.178456 302 12097ft 182kts
01-Aug-18 18:32 35.118550 -113.229414 302 12096ft 181kts
01-Aug-18 18:33 35.146608 -113.280519 302 12096ft 181kts
01-Aug-18 18:34 35.174662 -113.331687 302 12096ft 181kts
01-Aug-18 18:35 35.202636 -113.382784 302 12096ft 181kts
01-Aug-18 18:36 35.230629 -113.433988 302 12096ft 181kts
01-Aug-18 18:37 35.258502 -113.485047 302 12096ft 181kts
01-Aug-18 18:38 35.286547 -113.536468 302 12097ft 181kts
01-Aug-18 18:39 35.314050 -113.587014 302 12096ft 181kts
01-Aug-18 18:40 35.342045 -113.638532 302 12096ft 181kts
01-Aug-18 18:41 35.369777 -113.689635 301 12097ft 181kts
01-Aug-18 18:42 35.397646 -113.741076 301 12097ft 181kts
01-Aug-18 18:43 35.425492 -113.792524 301 12097ft 181kts
01-Aug-18 18:44 35.453380 -113.844136 301 12097ft 181kts
01-Aug-18 18:45 35.481283 -113.895853 301 12097ft 181kts
01-Aug-18 18:46 35.509041 -113.947379 301 12097ft 181kts
01-Aug-18 18:47 35.536872 -113.999117 301 12097ft 181kts
01-Aug-18 18:48 35.564718 -114.050962 301 12097ft 181kts
01-Aug-18 18:49 35.592508 -114.102730 301 12097ft 182kts
01-Aug-18 18:50 35.620188 -114.154449 301 12172ft 177kts
01-Aug-18 18:51 35.647530 -114.205606 301 12187ft 180kts
01-Aug-18 18:52 35.675014 -114.257083 301 12044ft 186kts
01-Aug-18 18:53 35.703174 -114.309888 301 12025ft 183kts
01-Aug-18 18:54 35.730995 -114.362155 301 12026ft 182kts
01-Aug-18 18:55 35.758675 -114.414236 301 12026ft 181kts
01-Aug-18 18:56 35.787693 -114.464925 318 12029ft 182kts
01-Aug-18 18:57 35.828785 -114.501647 323 12026ft 183kts
01-Aug-18 18:58 35.871030 -114.538116 323 11729ft 198kts
01-Aug-18 18:59 35.918921 -114.579427 323 10708ft 216kts
01-Aug-18 19:00 35.968292 -114.622234 323 9776ft 214kts
01-Aug-18 19:01 36.011659 -114.659862 323 8350ft 181kts
01-Aug-18 19:02 36.055513 -114.698091 324 6863ft 200kts
01-Aug-18 19:03 36.099349 -114.735915 323 6028ft 193kts
01-Aug-18 19:04 36.138939 -114.777723 305 6026ft 189kts
01-Aug-18 19:05 36.169032 -114.829977 306 6002ft 184kts
01-Aug-18 19:06 36.198541 -114.880674 302 5996ft 182kts
01-Aug-18 19:07 36.228295 -114.932337 302 5999ft 186kts
01-Aug-18 19:08 36.258346 -114.984370 302 5996ft 184kts
01-Aug-18 19:09 36.250887 -115.023194 219 6000ft 166kts
01-Aug-18 19:10 36.215362 -115.055391 214 5883ft 146kts
01-Aug-18 19:11 36.187627 -115.079007 217 5101ft 121kts
01-Aug-18 19:12 36.160466 -115.105275 214 4122ft 123kts
01-Aug-18 19:13 36.138472 -115.133428 215 3049ft 111kts
01-Aug-18 19:14 36.111696 -115.149565 207 2472ft 100kts
01-Aug-18 19:15 36.092595 -115.160552 206 2114ft 2kts

Navigation Log

Ident Type
Flight plan parsing failed, navigation log unavailable